Startpagina
METAR-TAF:

METAR-TAF

Vliegvelden :

Luchthaven Houari Boumedienne

Algiers, Algerije

breedte: 36-43N, lengte: 003-15E, hoogte: 25 m

Actueel weer

Dit bericht is 35 minuten geleden gemaakt, om 19:00 UTC
Wind 5 kt uit het noordoosten, variërend tussen het noorden en het oostnoordoosten
Temperatuur 12°C
Vochtigheid 88%
Druk 1019 hPa
Zicht 10 km of meer
Weinig wolken op 3300 ft
Verspreide wolken op 20000 ft

METAR: DAAG 191900Z 04005KT 360V070 9999 FEW033 SCT200 12/10 Q1019

Tijdstip: 20:35 (19:35 UTC)

Verwachting

Dit bericht is 2 uur en het 35 minuten geleden gemaakt, om 17:00 UTC
Verwachting geldig van 19 om 18 UTC tot 20 om 18 UTC
Wind 8 kt uit het oosten
Zicht 10 km of meer
Weinig wolken op 3300 ft
Verspreide wolken op 20000 ft
Kans 30% :
Tijdelijke
van 19 om 23 UTC tot 20 om 06 UTC
Zicht: 5000 m
nevel
Wijzigt naar
van 19 om 09 UTC tot 19 om 12 UTC
Wind 12 kt uit het noorden

TAF: DAAG 191700Z 1918/2018 08008KT 9999 FEW033 SCT200 PROB30 TEMPO 1923/2006 5000 BR BECMG 1909/1912 35012KT

Waarnemingen en weersverwachtingen van meer dan 4000 vliegvelden (METAR en TAF).

De beschikbare stations zijn de gele en rode punten op de kaart.

Ga met uw muis naar het station om de naam te zien.

Klik dan om waarnemingen en weersverwachtingen te zien.

kaart wijzigen: klik op de groene knoppen met een zwart kruis om in te zoomen, op de groene knop met een streepje om uit te zoomen of op de groene pijlen voor aangrenzende kaarten.


METAR-TAF: